KJAC

Jackson Hole Airport

Jackson, Wyoming, USA
KJAC 190527Z 1906/2006 01007KT P6SM SCT200 FM191400 VRB04KT P6SM SKC FM200300 36006KT P6SM SKC AMD LTD TO CLD VIS AND WIND
Issued Valid From Valid To
Oct-19 @ 05:27 UTC
(4 hours ago)
Oct-19 @ 06:00 UTC
(3 hours ago)
Oct-20 @ 06:00 UTC
(in 21 hours)
Oct-19 @ 06:00 to Oct-19 @ 14:00
KJAC 190527Z 1906/2006 01007KT P6SM SCT200
Wind Visibility Clouds
10° at 7 knots Greater than 6 miles
  • Scattered at 20,000' AGL
From Oct-19 @ 14:00 to Oct-20 @ 03:00
FM191400 VRB04KT P6SM SKC
Wind Visibility Clouds
Variable at 4 knots Greater than 6 miles
  • Clear skies
From Oct-20 @ 03:00 to Oct-20 @ 06:00
FM200300 36006KT P6SM SKC AMD LTD TO CLD VIS AND WIND
Wind Visibility Clouds
360° at 6 knots Greater than 6 miles
  • Clear skies
KJAC 190527Z 1906/2006 01007KT P6SM SCT200 FM191400 VRB04KT P6SM SKC FM200300 36006KT P6SM SKC AMD LTD TO CLD VIS AND WIND
Issued Oct-19 @ 05:27 UTC
(4 hours ago)
Valid From Oct-19 @ 06:00 UTC
(3 hours ago)
Valid To Oct-20 @ 06:00 UTC
(in 21 hours)
Oct-19 @ 06:00 - Oct-19 @ 14:00
Wind Visibility
10° at 7 knots Greater than 6 miles
Clouds
  • Scattered at 20,000' AGL
From Oct-19 @ 14:00 - Oct-20 @ 03:00
Wind Visibility
Variable at 4 knots Greater than 6 miles
Clouds
  • Clear skies
From Oct-20 @ 03:00 - Oct-20 @ 06:00
Wind Visibility
360° at 6 knots Greater than 6 miles
Clouds
  • Clear skies